sensor_id;sensor_type;location;lat;lon;timestamp;temperature;humidity
5494;DHT22;2769;49.864;8.656;2022-07-22T00:01:22;24.00;99.90
5494;DHT22;2769;49.864;8.656;2022-07-22T00:04:09;24.10;99.90
5494;DHT22;2769;49.864;8.656;2022-07-22T00:06:57;24.10;99.90
5494;DHT22;2769;49.864;8.656;2022-07-22T00:09:44;23.90;99.90
5494;DHT22;2769;49.864;8.656;2022-07-22T00:12:30;23.90;99.90
5494;DHT22;2769;49.864;8.656;2022-07-22T00:15:17;24.10;99.90
5494;DHT22;2769;49.864;8.656;2022-07-22T00:18:04;24.10;99.90
5494;DHT22;2769;49.864;8.656;2022-07-22T00:20:51;24.00;99.90
5494;DHT22;2769;49.864;8.656;2022-07-22T00:23:39;24.00;99.90
5494;DHT22;2769;49.864;8.656;2022-07-22T00:26:26;23.90;99.90
5494;DHT22;2769;49.864;8.656;2022-07-22T00:29:12;23.80;99.90
5494;DHT22;2769;49.864;8.656;2022-07-22T00:31:59;23.80;99.90
5494;DHT22;2769;49.864;8.656;2022-07-22T00:34:45;23.80;99.90
5494;DHT22;2769;49.864;8.656;2022-07-22T00:37:31;23.80;99.90
5494;DHT22;2769;49.864;8.656;2022-07-22T00:40:19;23.60;99.90
5494;DHT22;2769;49.864;8.656;2022-07-22T00:43:06;23.60;99.90
5494;DHT22;2769;49.864;8.656;2022-07-22T00:45:52;23.50;99.90
5494;DHT22;2769;49.864;8.656;2022-07-22T00:48:40;23.30;99.90
5494;DHT22;2769;49.864;8.656;2022-07-22T00:51:27;23.40;99.90
5494;DHT22;2769;49.864;8.656;2022-07-22T00:54:16;23.40;99.90
5494;DHT22;2769;49.864;8.656;2022-07-22T00:57:04;23.10;99.90
5494;DHT22;2769;49.864;8.656;2022-07-22T00:59:51;23.20;99.90
5494;DHT22;2769;49.864;8.656;2022-07-22T01:02:38;23.10;99.90
5494;DHT22;2769;49.864;8.656;2022-07-22T01:05:25;23.10;99.90
5494;DHT22;2769;49.864;8.656;2022-07-22T01:08:12;23.20;99.90
5494;DHT22;2769;49.864;8.656;2022-07-22T01:11:06;23.20;99.90
5494;DHT22;2769;49.864;8.656;2022-07-22T01:13:55;23.20;99.90
5494;DHT22;2769;49.864;8.656;2022-07-22T01:16:42;23.10;99.90
5494;DHT22;2769;49.864;8.656;2022-07-22T01:19:35;23.00;99.90
5494;DHT22;2769;49.864;8.656;2022-07-22T01:22:24;22.90;99.90
5494;DHT22;2769;49.864;8.656;2022-07-22T01:25:18;22.80;99.90
5494;DHT22;2769;49.864;8.656;2022-07-22T01:28:04;22.80;99.90
5494;DHT22;2769;49.864;8.656;2022-07-22T01:30:51;22.90;99.90
5494;DHT22;2769;49.864;8.656;2022-07-22T01:33:38;22.50;99.90
5494;DHT22;2769;49.864;8.656;2022-07-22T01:36:25;22.50;99.90
5494;DHT22;2769;49.864;8.656;2022-07-22T01:39:13;22.60;99.90
5494;DHT22;2769;49.864;8.656;2022-07-22T01:42:00;22.60;99.90
5494;DHT22;2769;49.864;8.656;2022-07-22T01:44:47;22.60;99.90
5494;DHT22;2769;49.864;8.656;2022-07-22T01:47:34;22.60;99.90
5494;DHT22;2769;49.864;8.656;2022-07-22T01:50:21;22.50;99.90
5494;DHT22;2769;49.864;8.656;2022-07-22T01:53:09;22.60;99.90
5494;DHT22;2769;49.864;8.656;2022-07-22T01:55:57;22.50;99.90
5494;DHT22;2769;49.864;8.656;2022-07-22T01:58:44;22.50;99.90
5494;DHT22;2769;49.864;8.656;2022-07-22T02:01:30;22.70;99.90
5494;DHT22;2769;49.864;8.656;2022-07-22T02:04:17;22.80;99.90
5494;DHT22;2769;49.864;8.656;2022-07-22T02:07:10;22.80;99.90
5494;DHT22;2769;49.864;8.656;2022-07-22T02:09:57;22.70;99.90
5494;DHT22;2769;49.864;8.656;2022-07-22T02:12:45;22.80;99.90
5494;DHT22;2769;49.864;8.656;2022-07-22T02:15:32;22.70;99.90
5494;DHT22;2769;49.864;8.656;2022-07-22T02:18:19;22.50;99.90
5494;DHT22;2769;49.864;8.656;2022-07-22T02:21:05;22.50;99.90
5494;DHT22;2769;49.864;8.656;2022-07-22T02:23:52;22.50;99.90
5494;DHT22;2769;49.864;8.656;2022-07-22T02:26:38;22.40;99.90
5494;DHT22;2769;49.864;8.656;2022-07-22T02:29:27;22.40;99.90
5494;DHT22;2769;49.864;8.656;2022-07-22T02:32:15;22.40;99.90
5494;DHT22;2769;49.864;8.656;2022-07-22T02:35:03;22.50;99.90
5494;DHT22;2769;49.864;8.656;2022-07-22T02:37:49;22.50;99.90
5494;DHT22;2769;49.864;8.656;2022-07-22T02:40:37;22.60;99.90
5494;DHT22;2769;49.864;8.656;2022-07-22T02:43:23;22.50;99.90
5494;DHT22;2769;49.864;8.656;2022-07-22T02:46:11;22.60;99.90
5494;DHT22;2769;49.864;8.656;2022-07-22T02:48:58;22.60;99.90
5494;DHT22;2769;49.864;8.656;2022-07-22T02:51:45;22.40;99.90
5494;DHT22;2769;49.864;8.656;2022-07-22T02:54:31;22.40;99.90
5494;DHT22;2769;49.864;8.656;2022-07-22T02:57:18;22.40;99.90
5494;DHT22;2769;49.864;8.656;2022-07-22T03:03:07;22.30;99.90
5494;DHT22;2769;49.864;8.656;2022-07-22T03:05:53;22.40;99.90
5494;DHT22;2769;49.864;8.656;2022-07-22T03:08:40;22.20;99.90
5494;DHT22;2769;49.864;8.656;2022-07-22T03:11:26;22.00;99.90
5494;DHT22;2769;49.864;8.656;2022-07-22T03:14:13;22.20;99.90
5494;DHT22;2769;49.864;8.656;2022-07-22T03:17:01;22.20;99.90
5494;DHT22;2769;49.864;8.656;2022-07-22T03:19:50;22.30;99.90
5494;DHT22;2769;49.864;8.656;2022-07-22T03:22:36;22.30;99.90
5494;DHT22;2769;49.864;8.656;2022-07-22T03:25:23;22.10;99.90
5494;DHT22;2769;49.864;8.656;2022-07-22T03:28:09;22.20;99.90
5494;DHT22;2769;49.864;8.656;2022-07-22T03:30:56;22.20;99.90
5494;DHT22;2769;49.864;8.656;2022-07-22T03:33:42;22.20;99.90
5494;DHT22;2769;49.864;8.656;2022-07-22T03:36:31;22.20;99.90
5494;DHT22;2769;49.864;8.656;2022-07-22T03:39:17;22.40;99.90
5494;DHT22;2769;49.864;8.656;2022-07-22T03:42:05;22.40;99.90
5494;DHT22;2769;49.864;8.656;2022-07-22T03:44:51;22.30;99.90
5494;DHT22;2769;49.864;8.656;2022-07-22T03:47:37;22.20;99.90
5494;DHT22;2769;49.864;8.656;2022-07-22T03:50:25;22.30;99.90
5494;DHT22;2769;49.864;8.656;2022-07-22T03:53:13;22.30;99.90
5494;DHT22;2769;49.864;8.656;2022-07-22T03:56:00;22.40;99.90
5494;DHT22;2769;49.864;8.656;2022-07-22T03:58:47;22.40;99.90
5494;DHT22;2769;49.864;8.656;2022-07-22T04:01:33;22.50;99.90
5494;DHT22;2769;49.864;8.656;2022-07-22T04:04:20;22.50;99.90
5494;DHT22;2769;49.864;8.656;2022-07-22T04:07:07;22.40;99.90
5494;DHT22;2769;49.864;8.656;2022-07-22T04:09:54;22.40;99.90
5494;DHT22;2769;49.864;8.656;2022-07-22T04:12:50;22.40;99.90
5494;DHT22;2769;49.864;8.656;2022-07-22T04:15:36;22.40;99.90
5494;DHT22;2769;49.864;8.656;2022-07-22T04:18:23;22.50;99.90
5494;DHT22;2769;49.864;8.656;2022-07-22T04:21:09;22.50;99.90
5494;DHT22;2769;49.864;8.656;2022-07-22T04:23:56;22.60;99.90
5494;DHT22;2769;49.864;8.656;2022-07-22T04:26:48;22.70;99.90
5494;DHT22;2769;49.864;8.656;2022-07-22T04:29:34;22.80;99.90
5494;DHT22;2769;49.864;8.656;2022-07-22T04:32:21;23.00;99.90
5494;DHT22;2769;49.864;8.656;2022-07-22T04:35:08;23.00;99.90
5494;DHT22;2769;49.864;8.656;2022-07-22T04:37:55;22.90;99.90
5494;DHT22;2769;49.864;8.656;2022-07-22T04:40:41;22.90;99.90
5494;DHT22;2769;49.864;8.656;2022-07-22T04:43:29;22.80;99.90
5494;DHT22;2769;49.864;8.656;2022-07-22T04:46:16;22.90;99.90
5494;DHT22;2769;49.864;8.656;2022-07-22T04:49:03;22.60;99.90
5494;DHT22;2769;49.864;8.656;2022-07-22T04:51:49;22.70;99.90
5494;DHT22;2769;49.864;8.656;2022-07-22T04:54:36;22.80;99.90
5494;DHT22;2769;49.864;8.656;2022-07-22T04:57:23;22.70;99.90
5494;DHT22;2769;49.864;8.656;2022-07-22T05:00:12;22.90;99.90
5494;DHT22;2769;49.864;8.656;2022-07-22T05:03:01;23.00;99.90
5494;DHT22;2769;49.864;8.656;2022-07-22T05:05:47;23.10;99.90
5494;DHT22;2769;49.864;8.656;2022-07-22T05:08:34;23.00;99.90
5494;DHT22;2769;49.864;8.656;2022-07-22T05:11:20;22.90;99.90
5494;DHT22;2769;49.864;8.656;2022-07-22T05:14:07;23.00;99.90
5494;DHT22;2769;49.864;8.656;2022-07-22T05:16:55;23.10;99.90
5494;DHT22;2769;49.864;8.656;2022-07-22T05:19:42;23.30;99.90
5494;DHT22;2769;49.864;8.656;2022-07-22T05:22:29;23.40;99.90
5494;DHT22;2769;49.864;8.656;2022-07-22T05:25:22;23.30;99.90
5494;DHT22;2769;49.864;8.656;2022-07-22T05:28:08;23.40;99.90
5494;DHT22;2769;49.864;8.656;2022-07-22T05:30:55;23.50;99.90
5494;DHT22;2769;49.864;8.656;2022-07-22T05:33:43;23.40;99.90
5494;DHT22;2769;49.864;8.656;2022-07-22T05:36:29;23.40;99.90
5494;DHT22;2769;49.864;8.656;2022-07-22T05:39:16;23.40;99.90
5494;DHT22;2769;49.864;8.656;2022-07-22T05:42:04;23.30;99.90
5494;DHT22;2769;49.864;8.656;2022-07-22T05:44:50;23.40;99.90
5494;DHT22;2769;49.864;8.656;2022-07-22T05:47:37;23.40;99.90
5494;DHT22;2769;49.864;8.656;2022-07-22T05:50:25;23.50;99.90
5494;DHT22;2769;49.864;8.656;2022-07-22T05:53:11;23.60;99.90
5494;DHT22;2769;49.864;8.656;2022-07-22T05:55:58;23.70;99.90
5494;DHT22;2769;49.864;8.656;2022-07-22T05:58:51;23.50;99.90
5494;DHT22;2769;49.864;8.656;2022-07-22T06:01:38;23.50;99.90
5494;DHT22;2769;49.864;8.656;2022-07-22T06:04:25;23.20;99.90
5494;DHT22;2769;49.864;8.656;2022-07-22T06:07:14;23.40;99.90
5494;DHT22;2769;49.864;8.656;2022-07-22T06:10:01;23.50;99.90
5494;DHT22;2769;49.864;8.656;2022-07-22T06:12:47;23.80;99.90
5494;DHT22;2769;49.864;8.656;2022-07-22T06:15:33;23.90;99.90
5494;DHT22;2769;49.864;8.656;2022-07-22T06:18:20;23.90;99.90
5494;DHT22;2769;49.864;8.656;2022-07-22T06:21:07;23.90;99.90
5494;DHT22;2769;49.864;8.656;2022-07-22T06:23:55;23.40;99.90
5494;DHT22;2769;49.864;8.656;2022-07-22T06:26:42;23.20;99.90
5494;DHT22;2769;49.864;8.656;2022-07-22T06:29:29;23.40;99.90
5494;DHT22;2769;49.864;8.656;2022-07-22T06:32:16;23.60;99.90
5494;DHT22;2769;49.864;8.656;2022-07-22T06:35:06;23.90;99.90
5494;DHT22;2769;49.864;8.656;2022-07-22T06:37:53;24.20;99.90
5494;DHT22;2769;49.864;8.656;2022-07-22T06:40:51;24.10;99.90
5494;DHT22;2769;49.864;8.656;2022-07-22T06:43:38;24.10;99.90
5494;DHT22;2769;49.864;8.656;2022-07-22T06:46:25;24.20;99.90
5494;DHT22;2769;49.864;8.656;2022-07-22T06:49:12;24.20;99.90
5494;DHT22;2769;49.864;8.656;2022-07-22T06:52:00;24.30;99.90
5494;DHT22;2769;49.864;8.656;2022-07-22T06:54:47;24.20;99.90
5494;DHT22;2769;49.864;8.656;2022-07-22T06:57:35;24.20;99.90
5494;DHT22;2769;49.864;8.656;2022-07-22T07:00:22;24.10;99.90
5494;DHT22;2769;49.864;8.656;2022-07-22T07:03:09;24.00;99.90
5494;DHT22;2769;49.864;8.656;2022-07-22T07:06:15;24.00;99.90
5494;DHT22;2769;49.864;8.656;2022-07-22T07:09:03;24.20;99.90
5494;DHT22;2769;49.864;8.656;2022-07-22T07:11:49;24.40;99.90
5494;DHT22;2769;49.864;8.656;2022-07-22T07:14:37;24.40;99.90
5494;DHT22;2769;49.864;8.656;2022-07-22T07:17:33;24.40;99.90
5494;DHT22;2769;49.864;8.656;2022-07-22T07:20:20;24.40;99.90
5494;DHT22;2769;49.864;8.656;2022-07-22T07:23:07;24.50;99.90
5494;DHT22;2769;49.864;8.656;2022-07-22T07:25:56;24.70;99.90
5494;DHT22;2769;49.864;8.656;2022-07-22T07:28:43;24.90;99.90
5494;DHT22;2769;49.864;8.656;2022-07-22T07:31:31;25.00;99.90
5494;DHT22;2769;49.864;8.656;2022-07-22T07:34:20;24.90;99.90
5494;DHT22;2769;49.864;8.656;2022-07-22T07:37:06;25.00;99.90
5494;DHT22;2769;49.864;8.656;2022-07-22T07:39:54;25.20;99.90
5494;DHT22;2769;49.864;8.656;2022-07-22T07:42:41;25.20;99.90
5494;DHT22;2769;49.864;8.656;2022-07-22T07:45:34;25.40;99.90
5494;DHT22;2769;49.864;8.656;2022-07-22T07:48:23;25.40;99.90
5494;DHT22;2769;49.864;8.656;2022-07-22T07:51:10;25.90;99.90
5494;DHT22;2769;49.864;8.656;2022-07-22T07:53:59;26.30;99.90
5494;DHT22;2769;49.864;8.656;2022-07-22T07:56:45;26.30;99.90
5494;DHT22;2769;49.864;8.656;2022-07-22T07:59:32;26.20;99.90
5494;DHT22;2769;49.864;8.656;2022-07-22T08:02:20;26.60;99.90
5494;DHT22;2769;49.864;8.656;2022-07-22T08:05:09;27.10;99.90
5494;DHT22;2769;49.864;8.656;2022-07-22T08:07:56;27.00;99.90
5494;DHT22;2769;49.864;8.656;2022-07-22T08:10:44;27.20;99.90
5494;DHT22;2769;49.864;8.656;2022-07-22T08:13:43;27.60;99.90
5494;DHT22;2769;49.864;8.656;2022-07-22T08:16:30;27.70;99.90
5494;DHT22;2769;49.864;8.656;2022-07-22T08:19:17;27.60;99.90
5494;DHT22;2769;49.864;8.656;2022-07-22T08:22:05;27.90;99.90
5494;DHT22;2769;49.864;8.656;2022-07-22T08:24:53;28.30;99.90
5494;DHT22;2769;49.864;8.656;2022-07-22T08:27:40;28.60;99.90
5494;DHT22;2769;49.864;8.656;2022-07-22T08:30:27;28.60;99.90
5494;DHT22;2769;49.864;8.656;2022-07-22T08:33:14;28.60;99.90
5494;DHT22;2769;49.864;8.656;2022-07-22T08:36:01;29.10;99.90
5494;DHT22;2769;49.864;8.656;2022-07-22T08:38:49;29.60;99.90
5494;DHT22;2769;49.864;8.656;2022-07-22T08:41:37;29.40;99.90
5494;DHT22;2769;49.864;8.656;2022-07-22T08:44:25;29.50;99.90
5494;DHT22;2769;49.864;8.656;2022-07-22T08:47:15;29.60;99.90
5494;DHT22;2769;49.864;8.656;2022-07-22T08:50:25;29.70;99.90
5494;DHT22;2769;49.864;8.656;2022-07-22T08:53:12;29.60;99.90
5494;DHT22;2769;49.864;8.656;2022-07-22T08:56:00;29.70;99.90
5494;DHT22;2769;49.864;8.656;2022-07-22T08:58:47;30.00;99.90
5494;DHT22;2769;49.864;8.656;2022-07-22T09:01:34;30.50;99.90
5494;DHT22;2769;49.864;8.656;2022-07-22T09:04:21;31.00;99.60
5494;DHT22;2769;49.864;8.656;2022-07-22T09:07:08;31.50;98.20
5494;DHT22;2769;49.864;8.656;2022-07-22T09:09:55;31.90;97.10
5494;DHT22;2769;49.864;8.656;2022-07-22T09:12:55;32.00;95.90
5494;DHT22;2769;49.864;8.656;2022-07-22T09:15:47;32.50;94.80
5494;DHT22;2769;49.864;8.656;2022-07-22T09:18:45;32.90;93.70
5494;DHT22;2769;49.864;8.656;2022-07-22T09:21:34;33.40;92.80
5494;DHT22;2769;49.864;8.656;2022-07-22T09:24:28;33.70;91.90
5494;DHT22;2769;49.864;8.656;2022-07-22T09:27:23;33.50;91.60
5494;DHT22;2769;49.864;8.656;2022-07-22T09:30:14;33.70;90.50
5494;DHT22;2769;49.864;8.656;2022-07-22T09:33:04;34.10;89.10
5494;DHT22;2769;49.864;8.656;2022-07-22T09:36:01;33.20;88.30
5494;DHT22;2769;49.864;8.656;2022-07-22T09:38:49;33.00;90.30
5494;DHT22;2769;49.864;8.656;2022-07-22T09:41:56;33.50;89.40
5494;DHT22;2769;49.864;8.656;2022-07-22T09:44:43;34.20;87.10
5494;DHT22;2769;49.864;8.656;2022-07-22T09:47:33;34.50;84.30
5494;DHT22;2769;49.864;8.656;2022-07-22T09:50:25;34.20;84.90
5494;DHT22;2769;49.864;8.656;2022-07-22T09:53:13;34.30;85.10
5494;DHT22;2769;49.864;8.656;2022-07-22T09:56:02;34.80;82.60
5494;DHT22;2769;49.864;8.656;2022-07-22T09:58:49;35.60;79.10
5494;DHT22;2769;49.864;8.656;2022-07-22T10:01:36;35.30;80.10
5494;DHT22;2769;49.864;8.656;2022-07-22T10:04:27;33.90;80.40
5494;DHT22;2769;49.864;8.656;2022-07-22T10:07:17;33.90;83.50
5494;DHT22;2769;49.864;8.656;2022-07-22T10:10:04;34.60;81.50
5494;DHT22;2769;49.864;8.656;2022-07-22T10:12:53;34.90;79.90
5494;DHT22;2769;49.864;8.656;2022-07-22T10:15:41;35.40;79.60
5494;DHT22;2769;49.864;8.656;2022-07-22T10:18:29;35.70;77.30
5494;DHT22;2769;49.864;8.656;2022-07-22T10:21:18;36.10;76.60
5494;DHT22;2769;49.864;8.656;2022-07-22T10:24:10;35.80;75.60
5494;DHT22;2769;49.864;8.656;2022-07-22T10:26:58;35.20;77.80
5494;DHT22;2769;49.864;8.656;2022-07-22T10:29:47;35.40;75.70
5494;DHT22;2769;49.864;8.656;2022-07-22T10:32:35;35.60;76.60
5494;DHT22;2769;49.864;8.656;2022-07-22T10:35:25;36.10;75.20
5494;DHT22;2769;49.864;8.656;2022-07-22T10:38:13;36.10;73.90
5494;DHT22;2769;49.864;8.656;2022-07-22T10:41:00;36.30;71.80
5494;DHT22;2769;49.864;8.656;2022-07-22T10:43:47;36.60;71.40
5494;DHT22;2769;49.864;8.656;2022-07-22T10:46:48;36.30;71.60
5494;DHT22;2769;49.864;8.656;2022-07-22T10:49:36;36.40;70.60
5494;DHT22;2769;49.864;8.656;2022-07-22T10:52:32;36.60;69.60
5494;DHT22;2769;49.864;8.656;2022-07-22T10:55:22;36.70;68.40
5494;DHT22;2769;49.864;8.656;2022-07-22T10:58:40;37.20;68.10
5494;DHT22;2769;49.864;8.656;2022-07-22T11:01:29;37.60;66.70
5494;DHT22;2769;49.864;8.656;2022-07-22T11:04:18;37.60;65.90
5494;DHT22;2769;49.864;8.656;2022-07-22T11:07:06;37.50;65.30
5494;DHT22;2769;49.864;8.656;2022-07-22T11:09:53;37.30;63.90
5494;DHT22;2769;49.864;8.656;2022-07-22T11:12:42;37.30;63.90
5494;DHT22;2769;49.864;8.656;2022-07-22T11:15:31;37.40;63.30
5494;DHT22;2769;49.864;8.656;2022-07-22T11:18:18;37.10;63.10
5494;DHT22;2769;49.864;8.656;2022-07-22T11:21:05;37.20;63.50
5494;DHT22;2769;49.864;8.656;2022-07-22T11:24:01;37.40;63.00
5494;DHT22;2769;49.864;8.656;2022-07-22T11:26:50;37.60;61.10
5494;DHT22;2769;49.864;8.656;2022-07-22T11:29:40;37.50;61.70
5494;DHT22;2769;49.864;8.656;2022-07-22T11:32:40;37.60;60.50
5494;DHT22;2769;49.864;8.656;2022-07-22T11:35:27;37.80;59.50
5494;DHT22;2769;49.864;8.656;2022-07-22T11:38:14;38.00;59.10
5494;DHT22;2769;49.864;8.656;2022-07-22T11:41:01;38.40;58.50
5494;DHT22;2769;49.864;8.656;2022-07-22T11:43:50;38.80;57.80
5494;DHT22;2769;49.864;8.656;2022-07-22T11:46:40;39.00;58.00
5494;DHT22;2769;49.864;8.656;2022-07-22T11:49:29;39.10;56.80
5494;DHT22;2769;49.864;8.656;2022-07-22T11:52:16;39.40;56.20
5494;DHT22;2769;49.864;8.656;2022-07-22T11:55:14;39.90;55.80
5494;DHT22;2769;49.864;8.656;2022-07-22T11:58:01;39.40;56.30
5494;DHT22;2769;49.864;8.656;2022-07-22T12:00:48;38.90;56.70
5494;DHT22;2769;49.864;8.656;2022-07-22T12:03:37;39.60;56.00
5494;DHT22;2769;49.864;8.656;2022-07-22T12:06:26;40.10;55.20
5494;DHT22;2769;49.864;8.656;2022-07-22T12:09:14;40.70;53.50
5494;DHT22;2769;49.864;8.656;2022-07-22T12:12:03;41.10;53.10
5494;DHT22;2769;49.864;8.656;2022-07-22T12:14:50;40.50;52.30
5494;DHT22;2769;49.864;8.656;2022-07-22T12:17:37;40.90;52.50
5494;DHT22;2769;49.864;8.656;2022-07-22T12:20:26;40.80;52.00
5494;DHT22;2769;49.864;8.656;2022-07-22T12:23:12;41.60;50.90
5494;DHT22;2769;49.864;8.656;2022-07-22T12:26:01;41.60;50.50
5494;DHT22;2769;49.864;8.656;2022-07-22T12:28:48;41.50;51.40
5494;DHT22;2769;49.864;8.656;2022-07-22T12:31:42;42.10;50.20
5494;DHT22;2769;49.864;8.656;2022-07-22T12:34:31;41.90;49.10
5494;DHT22;2769;49.864;8.656;2022-07-22T12:37:20;42.80;48.70
5494;DHT22;2769;49.864;8.656;2022-07-22T12:40:10;43.50;47.70
5494;DHT22;2769;49.864;8.656;2022-07-22T12:43:00;44.20;46.70
5494;DHT22;2769;49.864;8.656;2022-07-22T12:45:47;44.70;44.50
5494;DHT22;2769;49.864;8.656;2022-07-22T12:48:33;45.20;44.10
5494;DHT22;2769;49.864;8.656;2022-07-22T12:51:20;44.10;43.80
5494;DHT22;2769;49.864;8.656;2022-07-22T12:54:08;43.60;44.50
5494;DHT22;2769;49.864;8.656;2022-07-22T12:56:55;44.40;43.60
5494;DHT22;2769;49.864;8.656;2022-07-22T12:59:51;45.20;42.50
5494;DHT22;2769;49.864;8.656;2022-07-22T13:02:38;44.50;42.60
5494;DHT22;2769;49.864;8.656;2022-07-22T13:05:25;44.80;42.70
5494;DHT22;2769;49.864;8.656;2022-07-22T13:08:12;44.80;42.50
5494;DHT22;2769;49.864;8.656;2022-07-22T13:11:00;44.60;42.00
5494;DHT22;2769;49.864;8.656;2022-07-22T13:13:46;43.30;43.30
5494;DHT22;2769;49.864;8.656;2022-07-22T13:16:33;44.10;42.80
5494;DHT22;2769;49.864;8.656;2022-07-22T13:19:20;44.20;41.80
5494;DHT22;2769;49.864;8.656;2022-07-22T13:22:06;43.90;41.40
5494;DHT22;2769;49.864;8.656;2022-07-22T13:24:53;45.00;40.70
5494;DHT22;2769;49.864;8.656;2022-07-22T13:27:41;45.10;40.60
5494;DHT22;2769;49.864;8.656;2022-07-22T13:30:28;45.20;40.40
5494;DHT22;2769;49.864;8.656;2022-07-22T13:33:15;44.70;40.90
5494;DHT22;2769;49.864;8.656;2022-07-22T13:36:02;44.30;41.10
5494;DHT22;2769;49.864;8.656;2022-07-22T13:38:50;44.50;40.00
5494;DHT22;2769;49.864;8.656;2022-07-22T13:41:36;45.10;40.00
5494;DHT22;2769;49.864;8.656;2022-07-22T13:44:24;45.90;39.40
5494;DHT22;2769;49.864;8.656;2022-07-22T13:47:11;47.10;38.40
5494;DHT22;2769;49.864;8.656;2022-07-22T13:49:57;47.00;37.80
5494;DHT22;2769;49.864;8.656;2022-07-22T13:52:44;45.60;39.00
5494;DHT22;2769;49.864;8.656;2022-07-22T13:55:31;43.60;38.70
5494;DHT22;2769;49.864;8.656;2022-07-22T13:58:18;43.50;40.10
5494;DHT22;2769;49.864;8.656;2022-07-22T14:01:08;42.30;42.10
5494;DHT22;2769;49.864;8.656;2022-07-22T14:03:55;40.60;43.70
5494;DHT22;2769;49.864;8.656;2022-07-22T14:06:43;38.60;46.40
5494;DHT22;2769;49.864;8.656;2022-07-22T14:09:29;36.20;49.50
5494;DHT22;2769;49.864;8.656;2022-07-22T14:12:23;35.40;51.80
5494;DHT22;2769;49.864;8.656;2022-07-22T14:15:10;35.80;52.80
5494;DHT22;2769;49.864;8.656;2022-07-22T14:17:59;35.90;51.80
5494;DHT22;2769;49.864;8.656;2022-07-22T14:20:47;36.00;52.20
5494;DHT22;2769;49.864;8.656;2022-07-22T14:23:33;35.60;52.10
5494;DHT22;2769;49.864;8.656;2022-07-22T14:26:20;36.10;52.60
5494;DHT22;2769;49.864;8.656;2022-07-22T14:29:07;35.20;52.80
5494;DHT22;2769;49.864;8.656;2022-07-22T14:31:53;35.10;54.60
5494;DHT22;2769;49.864;8.656;2022-07-22T14:34:41;35.20;54.20
5494;DHT22;2769;49.864;8.656;2022-07-22T14:37:28;35.20;54.50
5494;DHT22;2769;49.864;8.656;2022-07-22T14:40:14;35.10;54.30
5494;DHT22;2769;49.864;8.656;2022-07-22T14:43:01;34.90;54.40
5494;DHT22;2769;49.864;8.656;2022-07-22T14:46:08;35.00;54.70
5494;DHT22;2769;49.864;8.656;2022-07-22T14:48:55;34.60;55.50
5494;DHT22;2769;49.864;8.656;2022-07-22T14:51:44;34.60;54.80
5494;DHT22;2769;49.864;8.656;2022-07-22T14:54:30;34.60;54.10
5494;DHT22;2769;49.864;8.656;2022-07-22T14:57:17;34.50;54.50
5494;DHT22;2769;49.864;8.656;2022-07-22T15:00:04;34.90;53.60
5494;DHT22;2769;49.864;8.656;2022-07-22T15:02:53;34.50;54.20
5494;DHT22;2769;49.864;8.656;2022-07-22T15:05:39;34.20;55.00
5494;DHT22;2769;49.864;8.656;2022-07-22T15:08:28;34.30;56.60
5494;DHT22;2769;49.864;8.656;2022-07-22T15:11:15;34.50;55.80
5494;DHT22;2769;49.864;8.656;2022-07-22T15:14:02;34.50;54.80
5494;DHT22;2769;49.864;8.656;2022-07-22T15:16:49;34.70;54.90
5494;DHT22;2769;49.864;8.656;2022-07-22T15:19:36;34.70;54.00
5494;DHT22;2769;49.864;8.656;2022-07-22T15:22:22;34.50;54.50
5494;DHT22;2769;49.864;8.656;2022-07-22T15:25:11;33.40;54.70
5494;DHT22;2769;49.864;8.656;2022-07-22T15:27:58;33.20;56.60
5494;DHT22;2769;49.864;8.656;2022-07-22T15:31:06;33.30;57.10
5494;DHT22;2769;49.864;8.656;2022-07-22T15:33:53;33.70;56.50
5494;DHT22;2769;49.864;8.656;2022-07-22T15:36:41;33.50;56.50
5494;DHT22;2769;49.864;8.656;2022-07-22T15:39:27;33.90;56.30
5494;DHT22;2769;49.864;8.656;2022-07-22T15:42:15;34.00;56.40
5494;DHT22;2769;49.864;8.656;2022-07-22T15:45:02;33.60;57.50
5494;DHT22;2769;49.864;8.656;2022-07-22T15:47:49;33.60;56.90
5494;DHT22;2769;49.864;8.656;2022-07-22T15:50:36;33.50;57.40
5494;DHT22;2769;49.864;8.656;2022-07-22T15:53:22;33.10;58.20
5494;DHT22;2769;49.864;8.656;2022-07-22T15:56:10;33.20;58.50
5494;DHT22;2769;49.864;8.656;2022-07-22T15:58:58;32.70;58.40
5494;DHT22;2769;49.864;8.656;2022-07-22T16:02:15;32.90;59.30
5494;DHT22;2769;49.864;8.656;2022-07-22T16:05:01;32.70;59.50
5494;DHT22;2769;49.864;8.656;2022-07-22T16:07:48;32.70;59.80
5494;DHT22;2769;49.864;8.656;2022-07-22T16:10:35;32.30;59.80
5494;DHT22;2769;49.864;8.656;2022-07-22T16:13:21;32.40;60.60
5494;DHT22;2769;49.864;8.656;2022-07-22T16:16:09;32.20;60.80
5494;DHT22;2769;49.864;8.656;2022-07-22T16:18:56;32.20;61.60
5494;DHT22;2769;49.864;8.656;2022-07-22T16:21:44;32.10;61.90
5494;DHT22;2769;49.864;8.656;2022-07-22T16:24:30;32.30;61.20
5494;DHT22;2769;49.864;8.656;2022-07-22T16:27:17;32.50;60.30
5494;DHT22;2769;49.864;8.656;2022-07-22T16:30:12;32.80;60.00
5494;DHT22;2769;49.864;8.656;2022-07-22T16:33:00;32.90;60.20
5494;DHT22;2769;49.864;8.656;2022-07-22T16:35:47;32.30;61.20
5494;DHT22;2769;49.864;8.656;2022-07-22T16:38:34;32.50;60.50
5494;DHT22;2769;49.864;8.656;2022-07-22T16:41:20;32.70;59.90
5494;DHT22;2769;49.864;8.656;2022-07-22T16:44:11;32.70;60.30
5494;DHT22;2769;49.864;8.656;2022-07-22T16:46:58;32.80;60.10
5494;DHT22;2769;49.864;8.656;2022-07-22T16:49:46;32.60;59.70
5494;DHT22;2769;49.864;8.656;2022-07-22T16:52:32;32.40;60.80
5494;DHT22;2769;49.864;8.656;2022-07-22T16:55:19;32.30;61.10
5494;DHT22;2769;49.864;8.656;2022-07-22T16:58:06;32.10;61.90
5494;DHT22;2769;49.864;8.656;2022-07-22T17:00:53;32.00;61.20
5494;DHT22;2769;49.864;8.656;2022-07-22T17:03:40;32.10;62.40
5494;DHT22;2769;49.864;8.656;2022-07-22T17:06:28;32.30;61.90
5494;DHT22;2769;49.864;8.656;2022-07-22T17:09:14;31.90;62.00
5494;DHT22;2769;49.864;8.656;2022-07-22T17:12:02;32.00;62.80
5494;DHT22;2769;49.864;8.656;2022-07-22T17:14:48;32.30;62.10
5494;DHT22;2769;49.864;8.656;2022-07-22T17:17:35;32.30;61.70
5494;DHT22;2769;49.864;8.656;2022-07-22T17:20:21;32.30;61.40
5494;DHT22;2769;49.864;8.656;2022-07-22T17:23:09;32.10;61.70
5494;DHT22;2769;49.864;8.656;2022-07-22T17:25:56;32.30;61.80
5494;DHT22;2769;49.864;8.656;2022-07-22T17:28:43;32.00;62.10
5494;DHT22;2769;49.864;8.656;2022-07-22T17:31:30;32.10;61.70
5494;DHT22;2769;49.864;8.656;2022-07-22T17:34:16;31.90;62.20
5494;DHT22;2769;49.864;8.656;2022-07-22T17:37:05;31.60;61.30
5494;DHT22;2769;49.864;8.656;2022-07-22T17:39:53;31.90;61.70
5494;DHT22;2769;49.864;8.656;2022-07-22T17:42:40;31.50;61.50
5494;DHT22;2769;49.864;8.656;2022-07-22T17:45:27;31.40;61.60
5494;DHT22;2769;49.864;8.656;2022-07-22T17:48:14;31.60;62.30
5494;DHT22;2769;49.864;8.656;2022-07-22T17:51:01;31.80;61.70
5494;DHT22;2769;49.864;8.656;2022-07-22T17:53:47;32.00;61.10
5494;DHT22;2769;49.864;8.656;2022-07-22T17:56:35;32.00;59.70
5494;DHT22;2769;49.864;8.656;2022-07-22T17:59:22;31.90;59.90
5494;DHT22;2769;49.864;8.656;2022-07-22T18:02:09;31.60;61.40
5494;DHT22;2769;49.864;8.656;2022-07-22T18:04:56;31.50;61.00
5494;DHT22;2769;49.864;8.656;2022-07-22T18:07:43;31.70;61.50
5494;DHT22;2769;49.864;8.656;2022-07-22T18:10:29;31.90;63.10
5494;DHT22;2769;49.864;8.656;2022-07-22T18:13:17;32.00;63.50
5494;DHT22;2769;49.864;8.656;2022-07-22T18:16:05;31.80;61.60
5494;DHT22;2769;49.864;8.656;2022-07-22T18:18:51;31.70;62.50
5494;DHT22;2769;49.864;8.656;2022-07-22T18:21:38;31.70;62.20